sensor_id;sensor_type;location;lat;lon;timestamp;temperature;humidity
21646;DHT22;10984;45.712;4.800;2023-10-19T00:02:01;17.70;99.90
21646;DHT22;10984;45.712;4.800;2023-10-19T00:04:27;17.70;99.90
21646;DHT22;10984;45.712;4.800;2023-10-19T00:06:56;17.70;99.90
21646;DHT22;10984;45.712;4.800;2023-10-19T00:09:22;17.70;99.90
21646;DHT22;10984;45.712;4.800;2023-10-19T00:11:48;17.70;99.90
21646;DHT22;10984;45.712;4.800;2023-10-19T00:14:17;17.70;99.90
21646;DHT22;10984;45.712;4.800;2023-10-19T00:16:44;17.80;99.90
21646;DHT22;10984;45.712;4.800;2023-10-19T00:19:17;17.80;99.90
21646;DHT22;10984;45.712;4.800;2023-10-19T00:21:45;17.80;99.90
21646;DHT22;10984;45.712;4.800;2023-10-19T00:24:29;17.70;99.90
21646;DHT22;10984;45.712;4.800;2023-10-19T00:26:57;17.80;99.90
21646;DHT22;10984;45.712;4.800;2023-10-19T00:29:22;17.70;99.90
21646;DHT22;10984;45.712;4.800;2023-10-19T00:32:06;17.70;99.90
21646;DHT22;10984;45.712;4.800;2023-10-19T00:34:38;17.70;99.90
21646;DHT22;10984;45.712;4.800;2023-10-19T00:37:04;17.70;99.90
21646;DHT22;10984;45.712;4.800;2023-10-19T00:39:34;17.70;99.90
21646;DHT22;10984;45.712;4.800;2023-10-19T00:42:09;17.70;99.90
21646;DHT22;10984;45.712;4.800;2023-10-19T00:44:34;17.70;99.90
21646;DHT22;10984;45.712;4.800;2023-10-19T00:47:19;17.70;99.90
21646;DHT22;10984;45.712;4.800;2023-10-19T00:49:48;17.70;99.90
21646;DHT22;10984;45.712;4.800;2023-10-19T00:52:14;17.70;99.90
21646;DHT22;10984;45.712;4.800;2023-10-19T00:54:46;17.70;99.90
21646;DHT22;10984;45.712;4.800;2023-10-19T00:57:31;17.60;99.90
21646;DHT22;10984;45.712;4.800;2023-10-19T01:00:15;17.60;99.90
21646;DHT22;10984;45.712;4.800;2023-10-19T01:03:00;17.60;99.90
21646;DHT22;10984;45.712;4.800;2023-10-19T01:05:29;17.60;99.90
21646;DHT22;10984;45.712;4.800;2023-10-19T01:08:14;17.60;99.90
21646;DHT22;10984;45.712;4.800;2023-10-19T01:10:58;17.60;99.90
21646;DHT22;10984;45.712;4.800;2023-10-19T01:13:25;17.60;99.90
21646;DHT22;10984;45.712;4.800;2023-10-19T01:16:12;17.60;99.90
21646;DHT22;10984;45.712;4.800;2023-10-19T01:18:41;17.60;99.90
21646;DHT22;10984;45.712;4.800;2023-10-19T01:21:08;17.60;99.90
21646;DHT22;10984;45.712;4.800;2023-10-19T01:23:37;17.50;99.90
21646;DHT22;10984;45.712;4.800;2023-10-19T01:26:04;17.50;99.90
21646;DHT22;10984;45.712;4.800;2023-10-19T01:28:48;17.50;99.90
21646;DHT22;10984;45.712;4.800;2023-10-19T01:31:35;17.50;99.90
21646;DHT22;10984;45.712;4.800;2023-10-19T01:34:04;17.40;99.90
21646;DHT22;10984;45.712;4.800;2023-10-19T01:36:31;17.40;99.90
21646;DHT22;10984;45.712;4.800;2023-10-19T01:39:16;17.40;99.90
21646;DHT22;10984;45.712;4.800;2023-10-19T01:41:44;17.40;99.90
21646;DHT22;10984;45.712;4.800;2023-10-19T01:44:10;17.40;99.90
21646;DHT22;10984;45.712;4.800;2023-10-19T01:46:55;17.40;99.90
21646;DHT22;10984;45.712;4.800;2023-10-19T01:49:21;17.40;99.90
21646;DHT22;10984;45.712;4.800;2023-10-19T01:52:05;17.40;99.90
21646;DHT22;10984;45.712;4.800;2023-10-19T01:54:32;17.40;99.90
21646;DHT22;10984;45.712;4.800;2023-10-19T01:56:59;17.40;99.90
21646;DHT22;10984;45.712;4.800;2023-10-19T01:59:27;17.40;99.90
21646;DHT22;10984;45.712;4.800;2023-10-19T02:01:54;17.40;99.90
21646;DHT22;10984;45.712;4.800;2023-10-19T02:04:21;17.40;99.90
21646;DHT22;10984;45.712;4.800;2023-10-19T02:06:47;17.40;99.90
21646;DHT22;10984;45.712;4.800;2023-10-19T02:09:14;17.40;99.90
21646;DHT22;10984;45.712;4.800;2023-10-19T02:11:40;17.40;99.90
21646;DHT22;10984;45.712;4.800;2023-10-19T02:14:42;17.40;99.90
21646;DHT22;10984;45.712;4.800;2023-10-19T02:17:09;17.40;99.90
21646;DHT22;10984;45.712;4.800;2023-10-19T02:19:35;17.40;99.90
21646;DHT22;10984;45.712;4.800;2023-10-19T02:22:03;17.40;99.90
21646;DHT22;10984;45.712;4.800;2023-10-19T02:24:30;17.40;99.90
21646;DHT22;10984;45.712;4.800;2023-10-19T02:26:57;17.40;99.90
21646;DHT22;10984;45.712;4.800;2023-10-19T02:29:23;17.40;99.90
21646;DHT22;10984;45.712;4.800;2023-10-19T02:31:49;17.40;99.90
21646;DHT22;10984;45.712;4.800;2023-10-19T02:34:33;17.40;99.90
21646;DHT22;10984;45.712;4.800;2023-10-19T02:37:00;17.40;99.90
21646;DHT22;10984;45.712;4.800;2023-10-19T02:39:26;17.40;99.90
21646;DHT22;10984;45.712;4.800;2023-10-19T02:42:10;17.50;99.90
21646;DHT22;10984;45.712;4.800;2023-10-19T02:44:36;17.50;99.90
21646;DHT22;10984;45.712;4.800;2023-10-19T02:47:03;17.50;99.90
21646;DHT22;10984;45.712;4.800;2023-10-19T02:49:47;17.40;99.90
21646;DHT22;10984;45.712;4.800;2023-10-19T02:52:16;17.40;99.90
21646;DHT22;10984;45.712;4.800;2023-10-19T02:54:42;17.40;99.90
21646;DHT22;10984;45.712;4.800;2023-10-19T02:57:08;17.40;99.90
21646;DHT22;10984;45.712;4.800;2023-10-19T02:59:37;17.40;99.90
21646;DHT22;10984;45.712;4.800;2023-10-19T03:02:04;17.40;99.90
21646;DHT22;10984;45.712;4.800;2023-10-19T03:04:48;17.40;99.90
21646;DHT22;10984;45.712;4.800;2023-10-19T03:07:14;17.40;99.90
21646;DHT22;10984;45.712;4.800;2023-10-19T03:09:41;17.40;99.90
21646;DHT22;10984;45.712;4.800;2023-10-19T03:12:14;17.40;99.90
21646;DHT22;10984;45.712;4.800;2023-10-19T03:14:40;17.40;99.90
21646;DHT22;10984;45.712;4.800;2023-10-19T03:17:07;17.40;99.90
21646;DHT22;10984;45.712;4.800;2023-10-19T03:19:34;17.40;99.90
21646;DHT22;10984;45.712;4.800;2023-10-19T03:22:18;17.40;99.90
21646;DHT22;10984;45.712;4.800;2023-10-19T03:24:45;17.40;99.90
21646;DHT22;10984;45.712;4.800;2023-10-19T03:27:29;17.50;99.90
21646;DHT22;10984;45.712;4.800;2023-10-19T03:29:55;17.50;99.90
21646;DHT22;10984;45.712;4.800;2023-10-19T03:35:06;17.50;99.90
21646;DHT22;10984;45.712;4.800;2023-10-19T03:37:32;17.50;99.90
21646;DHT22;10984;45.712;4.800;2023-10-19T03:40:00;17.50;99.90
21646;DHT22;10984;45.712;4.800;2023-10-19T03:42:31;17.50;99.90
21646;DHT22;10984;45.712;4.800;2023-10-19T03:45:15;17.50;99.90
21646;DHT22;10984;45.712;4.800;2023-10-19T03:47:41;17.50;99.90
21646;DHT22;10984;45.712;4.800;2023-10-19T03:50:09;17.50;99.90
21646;DHT22;10984;45.712;4.800;2023-10-19T03:52:39;17.50;99.90
21646;DHT22;10984;45.712;4.800;2023-10-19T03:55:06;17.50;99.90
21646;DHT22;10984;45.712;4.800;2023-10-19T03:57:37;17.50;99.90
21646;DHT22;10984;45.712;4.800;2023-10-19T04:00:07;17.50;99.90
21646;DHT22;10984;45.712;4.800;2023-10-19T04:02:52;17.50;99.90
21646;DHT22;10984;45.712;4.800;2023-10-19T04:05:36;17.50;99.90
21646;DHT22;10984;45.712;4.800;2023-10-19T04:08:05;17.50;99.90
21646;DHT22;10984;45.712;4.800;2023-10-19T04:10:39;17.50;99.90
21646;DHT22;10984;45.712;4.800;2023-10-19T04:13:05;17.50;99.90
21646;DHT22;10984;45.712;4.800;2023-10-19T04:15:35;17.40;99.90
21646;DHT22;10984;45.712;4.800;2023-10-19T04:20:47;17.40;99.90
21646;DHT22;10984;45.712;4.800;2023-10-19T04:23:31;17.40;99.90
21646;DHT22;10984;45.712;4.800;2023-10-19T04:26:00;17.40;99.90
21646;DHT22;10984;45.712;4.800;2023-10-19T04:28:31;17.40;99.90
21646;DHT22;10984;45.712;4.800;2023-10-19T04:30:57;17.40;99.90
21646;DHT22;10984;45.712;4.800;2023-10-19T04:33:42;17.40;99.90
21646;DHT22;10984;45.712;4.800;2023-10-19T04:36:12;17.40;99.90
21646;DHT22;10984;45.712;4.800;2023-10-19T04:38:37;17.40;99.90
21646;DHT22;10984;45.712;4.800;2023-10-19T04:41:22;17.30;99.90
21646;DHT22;10984;45.712;4.800;2023-10-19T04:43:47;17.30;99.90
21646;DHT22;10984;45.712;4.800;2023-10-19T04:46:15;17.30;99.90
21646;DHT22;10984;45.712;4.800;2023-10-19T04:48:44;17.30;99.90
21646;DHT22;10984;45.712;4.800;2023-10-19T04:51:11;17.30;99.90
21646;DHT22;10984;45.712;4.800;2023-10-19T04:53:37;17.30;99.90
21646;DHT22;10984;45.712;4.800;2023-10-19T04:56:07;17.30;99.90
21646;DHT22;10984;45.712;4.800;2023-10-19T04:58:34;17.20;99.90
21646;DHT22;10984;45.712;4.800;2023-10-19T05:01:00;17.20;99.90
21646;DHT22;10984;45.712;4.800;2023-10-19T05:03:29;17.20;99.90
21646;DHT22;10984;45.712;4.800;2023-10-19T05:05:55;17.20;99.90
21646;DHT22;10984;45.712;4.800;2023-10-19T05:08:22;17.20;99.90
21646;DHT22;10984;45.712;4.800;2023-10-19T05:10:54;17.20;99.90
21646;DHT22;10984;45.712;4.800;2023-10-19T05:13:21;17.20;99.90
21646;DHT22;10984;45.712;4.800;2023-10-19T05:15:47;17.20;99.90
21646;DHT22;10984;45.712;4.800;2023-10-19T05:18:12;17.20;99.90
21646;DHT22;10984;45.712;4.800;2023-10-19T05:20:38;17.10;99.90
21646;DHT22;10984;45.712;4.800;2023-10-19T05:23:07;17.20;99.90
21646;DHT22;10984;45.712;4.800;2023-10-19T05:25:34;17.10;99.90
21646;DHT22;10984;45.712;4.800;2023-10-19T05:28:03;17.20;99.90
21646;DHT22;10984;45.712;4.800;2023-10-19T05:30:28;17.10;99.90
21646;DHT22;10984;45.712;4.800;2023-10-19T05:32:55;17.20;99.90
21646;DHT22;10984;45.712;4.800;2023-10-19T05:35:22;17.10;99.90
21646;DHT22;10984;45.712;4.800;2023-10-19T05:38:07;17.20;99.90
21646;DHT22;10984;45.712;4.800;2023-10-19T05:40:33;17.20;99.90
21646;DHT22;10984;45.712;4.800;2023-10-19T05:42:59;17.20;99.90
21646;DHT22;10984;45.712;4.800;2023-10-19T05:45:27;17.20;99.90
21646;DHT22;10984;45.712;4.800;2023-10-19T05:47:54;17.20;99.90
21646;DHT22;10984;45.712;4.800;2023-10-19T05:50:20;17.20;99.90
21646;DHT22;10984;45.712;4.800;2023-10-19T05:52:46;17.20;99.90
21646;DHT22;10984;45.712;4.800;2023-10-19T05:55:12;17.20;99.90
21646;DHT22;10984;45.712;4.800;2023-10-19T05:57:39;17.20;99.90
21646;DHT22;10984;45.712;4.800;2023-10-19T06:00:23;17.20;99.90
21646;DHT22;10984;45.712;4.800;2023-10-19T06:02:51;17.20;99.90
21646;DHT22;10984;45.712;4.800;2023-10-19T06:05:18;17.20;99.90
21646;DHT22;10984;45.712;4.800;2023-10-19T06:07:45;17.10;99.90
21646;DHT22;10984;45.712;4.800;2023-10-19T06:10:13;17.10;99.90
21646;DHT22;10984;45.712;4.800;2023-10-19T06:12:57;17.10;99.90
21646;DHT22;10984;45.712;4.800;2023-10-19T06:15:23;17.10;99.90
21646;DHT22;10984;45.712;4.800;2023-10-19T06:17:50;17.00;99.90
21646;DHT22;10984;45.712;4.800;2023-10-19T06:20:16;17.00;99.90
21646;DHT22;10984;45.712;4.800;2023-10-19T06:23:00;17.00;99.90
21646;DHT22;10984;45.712;4.800;2023-10-19T06:25:44;17.00;99.90
21646;DHT22;10984;45.712;4.800;2023-10-19T06:28:11;17.00;99.90
21646;DHT22;10984;45.712;4.800;2023-10-19T06:30:37;17.00;99.90
21646;DHT22;10984;45.712;4.800;2023-10-19T06:33:02;17.00;99.90
21646;DHT22;10984;45.712;4.800;2023-10-19T06:35:32;17.00;99.90
21646;DHT22;10984;45.712;4.800;2023-10-19T06:37:59;17.10;99.90
21646;DHT22;10984;45.712;4.800;2023-10-19T06:40:25;17.00;99.90
21646;DHT22;10984;45.712;4.800;2023-10-19T06:43:10;17.00;99.90
21646;DHT22;10984;45.712;4.800;2023-10-19T06:45:36;17.00;99.90
21646;DHT22;10984;45.712;4.800;2023-10-19T06:48:02;17.00;99.90
21646;DHT22;10984;45.712;4.800;2023-10-19T06:50:29;16.90;99.90
21646;DHT22;10984;45.712;4.800;2023-10-19T06:52:55;16.90;99.90
21646;DHT22;10984;45.712;4.800;2023-10-19T06:55:21;16.90;99.90
21646;DHT22;10984;45.712;4.800;2023-10-19T06:57:50;16.90;99.90
21646;DHT22;10984;45.712;4.800;2023-10-19T07:00:18;16.80;99.90
21646;DHT22;10984;45.712;4.800;2023-10-19T07:03:02;16.90;99.90
21646;DHT22;10984;45.712;4.800;2023-10-19T07:05:29;16.90;99.90
21646;DHT22;10984;45.712;4.800;2023-10-19T07:08:13;16.90;99.90
21646;DHT22;10984;45.712;4.800;2023-10-19T07:10:39;16.90;99.90
21646;DHT22;10984;45.712;4.800;2023-10-19T07:13:04;16.90;99.90
21646;DHT22;10984;45.712;4.800;2023-10-19T07:15:30;16.90;99.90
21646;DHT22;10984;45.712;4.800;2023-10-19T07:17:56;16.90;99.90
21646;DHT22;10984;45.712;4.800;2023-10-19T07:20:22;16.90;99.90
21646;DHT22;10984;45.712;4.800;2023-10-19T07:23:06;16.90;99.90
21646;DHT22;10984;45.712;4.800;2023-10-19T07:28:22;16.70;99.90
21646;DHT22;10984;45.712;4.800;2023-10-19T07:30:50;16.70;99.90
21646;DHT22;10984;45.712;4.800;2023-10-19T07:33:17;16.70;99.90
21646;DHT22;10984;45.712;4.800;2023-10-19T07:35:43;16.70;99.90
21646;DHT22;10984;45.712;4.800;2023-10-19T07:40:58;16.60;99.90
21646;DHT22;10984;45.712;4.800;2023-10-19T07:43:24;16.50;99.90
21646;DHT22;10984;45.712;4.800;2023-10-19T07:45:50;16.60;99.90
21646;DHT22;10984;45.712;4.800;2023-10-19T07:48:17;16.60;99.90
21646;DHT22;10984;45.712;4.800;2023-10-19T07:50:43;16.60;99.90
21646;DHT22;10984;45.712;4.800;2023-10-19T07:53:09;16.60;99.90
21646;DHT22;10984;45.712;4.800;2023-10-19T07:55:35;16.60;99.90
21646;DHT22;10984;45.712;4.800;2023-10-19T07:58:01;16.50;99.90
21646;DHT22;10984;45.712;4.800;2023-10-19T08:00:46;16.60;99.90
21646;DHT22;10984;45.712;4.800;2023-10-19T08:03:12;16.60;99.90
21646;DHT22;10984;45.712;4.800;2023-10-19T08:05:41;16.60;99.90
21646;DHT22;10984;45.712;4.800;2023-10-19T08:08:07;16.60;99.90
21646;DHT22;10984;45.712;4.800;2023-10-19T08:10:33;16.60;99.90
21646;DHT22;10984;45.712;4.800;2023-10-19T08:13:17;16.60;99.90
21646;DHT22;10984;45.712;4.800;2023-10-19T08:15:43;16.60;99.90
21646;DHT22;10984;45.712;4.800;2023-10-19T08:18:08;16.60;99.90
21646;DHT22;10984;45.712;4.800;2023-10-19T08:20:37;16.60;99.90
21646;DHT22;10984;45.712;4.800;2023-10-19T08:23:03;16.70;99.90
21646;DHT22;10984;45.712;4.800;2023-10-19T08:25:30;16.70;99.90
21646;DHT22;10984;45.712;4.800;2023-10-19T08:27:56;16.70;99.90
21646;DHT22;10984;45.712;4.800;2023-10-19T08:30:41;16.70;99.90
21646;DHT22;10984;45.712;4.800;2023-10-19T08:33:10;16.70;99.90
21646;DHT22;10984;45.712;4.800;2023-10-19T08:35:39;16.70;99.90
21646;DHT22;10984;45.712;4.800;2023-10-19T08:38:04;16.60;99.90
21646;DHT22;10984;45.712;4.800;2023-10-19T08:40:37;16.70;99.90
21646;DHT22;10984;45.712;4.800;2023-10-19T08:43:03;16.70;99.90
21646;DHT22;10984;45.712;4.800;2023-10-19T08:45:30;16.70;99.90
21646;DHT22;10984;45.712;4.800;2023-10-19T08:47:59;16.70;99.90
21646;DHT22;10984;45.712;4.800;2023-10-19T08:50:31;16.70;99.90
21646;DHT22;10984;45.712;4.800;2023-10-19T08:52:58;16.80;99.90
21646;DHT22;10984;45.712;4.800;2023-10-19T08:55:24;16.70;99.90
21646;DHT22;10984;45.712;4.800;2023-10-19T08:57:51;16.70;99.90
21646;DHT22;10984;45.712;4.800;2023-10-19T09:00:18;16.60;99.90
21646;DHT22;10984;45.712;4.800;2023-10-19T09:02:47;16.60;99.90
21646;DHT22;10984;45.712;4.800;2023-10-19T09:05:13;16.50;99.90
21646;DHT22;10984;45.712;4.800;2023-10-19T09:07:57;16.40;99.90
21646;DHT22;10984;45.712;4.800;2023-10-19T09:10:27;16.50;99.90
21646;DHT22;10984;45.712;4.800;2023-10-19T09:13:12;16.40;99.90
21646;DHT22;10984;45.712;4.800;2023-10-19T09:15:40;16.40;99.90
21646;DHT22;10984;45.712;4.800;2023-10-19T09:18:25;16.40;99.90
21646;DHT22;10984;45.712;4.800;2023-10-19T09:21:10;16.40;99.90
21646;DHT22;10984;45.712;4.800;2023-10-19T09:23:56;16.40;99.90
21646;DHT22;10984;45.712;4.800;2023-10-19T09:26:22;16.40;99.90
21646;DHT22;10984;45.712;4.800;2023-10-19T09:28:52;16.40;99.90
21646;DHT22;10984;45.712;4.800;2023-10-19T09:31:20;16.40;99.90
21646;DHT22;10984;45.712;4.800;2023-10-19T09:33:48;16.40;99.90
21646;DHT22;10984;45.712;4.800;2023-10-19T09:36:32;16.40;99.90
21646;DHT22;10984;45.712;4.800;2023-10-19T09:38:58;16.40;99.90
21646;DHT22;10984;45.712;4.800;2023-10-19T09:41:24;16.50;99.90
21646;DHT22;10984;45.712;4.800;2023-10-19T09:44:09;16.50;99.90
21646;DHT22;10984;45.712;4.800;2023-10-19T09:46:39;16.60;99.90
21646;DHT22;10984;45.712;4.800;2023-10-19T09:49:05;16.60;99.90
21646;DHT22;10984;45.712;4.800;2023-10-19T09:51:32;16.70;99.90
21646;DHT22;10984;45.712;4.800;2023-10-19T09:54:07;16.60;99.90
21646;DHT22;10984;45.712;4.800;2023-10-19T09:56:40;16.70;99.90
21646;DHT22;10984;45.712;4.800;2023-10-19T09:59:44;16.80;99.90
21646;DHT22;10984;45.712;4.800;2023-10-19T10:02:12;16.80;99.90
21646;DHT22;10984;45.712;4.800;2023-10-19T10:04:56;16.90;99.90
21646;DHT22;10984;45.712;4.800;2023-10-19T10:07:22;16.90;99.90
21646;DHT22;10984;45.712;4.800;2023-10-19T10:09:48;16.80;99.90
21646;DHT22;10984;45.712;4.800;2023-10-19T10:12:32;16.90;99.90
21646;DHT22;10984;45.712;4.800;2023-10-19T10:17:49;17.00;99.90
21646;DHT22;10984;45.712;4.800;2023-10-19T10:20:29;17.00;99.90
21646;DHT22;10984;45.712;4.800;2023-10-19T10:25:59;16.90;99.90
21646;DHT22;10984;45.712;4.800;2023-10-19T10:28:25;17.00;99.90
21646;DHT22;10984;45.712;4.800;2023-10-19T10:33:57;17.00;99.90
21646;DHT22;10984;45.712;4.800;2023-10-19T10:36:23;17.10;99.90
21646;DHT22;10984;45.712;4.800;2023-10-19T10:38:50;17.20;99.90
21646;DHT22;10984;45.712;4.800;2023-10-19T10:41:34;17.30;99.90
21646;DHT22;10984;45.712;4.800;2023-10-19T10:44:01;17.40;99.90
21646;DHT22;10984;45.712;4.800;2023-10-19T10:46:27;17.40;99.90
21646;DHT22;10984;45.712;4.800;2023-10-19T10:48:54;17.40;99.90
21646;DHT22;10984;45.712;4.800;2023-10-19T10:51:39;17.40;99.90
21646;DHT22;10984;45.712;4.800;2023-10-19T10:54:06;17.40;99.90
21646;DHT22;10984;45.712;4.800;2023-10-19T10:56:39;17.40;99.90
21646;DHT22;10984;45.712;4.800;2023-10-19T10:59:12;17.30;99.90
21646;DHT22;10984;45.712;4.800;2023-10-19T11:01:38;17.40;99.90
21646;DHT22;10984;45.712;4.800;2023-10-19T11:04:22;17.50;99.90
21646;DHT22;10984;45.712;4.800;2023-10-19T11:06:52;17.60;99.90
21646;DHT22;10984;45.712;4.800;2023-10-19T11:09:20;17.80;99.90
21646;DHT22;10984;45.712;4.800;2023-10-19T11:14:55;18.00;99.90
21646;DHT22;10984;45.712;4.800;2023-10-19T11:17:23;18.10;99.90
21646;DHT22;10984;45.712;4.800;2023-10-19T11:19:54;18.20;99.90
21646;DHT22;10984;45.712;4.800;2023-10-19T11:22:21;18.30;99.90
21646;DHT22;10984;45.712;4.800;2023-10-19T11:24:47;18.30;99.90
21646;DHT22;10984;45.712;4.800;2023-10-19T11:27:30;18.40;99.90
21646;DHT22;10984;45.712;4.800;2023-10-19T11:33:01;18.30;99.90
21646;DHT22;10984;45.712;4.800;2023-10-19T11:35:28;18.30;99.90
21646;DHT22;10984;45.712;4.800;2023-10-19T11:37:56;18.40;99.90
21646;DHT22;10984;45.712;4.800;2023-10-19T11:40:23;18.40;99.90
21646;DHT22;10984;45.712;4.800;2023-10-19T11:42:50;18.50;99.90
21646;DHT22;10984;45.712;4.800;2023-10-19T11:45:16;18.60;99.90
21646;DHT22;10984;45.712;4.800;2023-10-19T11:47:43;18.70;99.90
21646;DHT22;10984;45.712;4.800;2023-10-19T11:50:10;18.70;99.90
21646;DHT22;10984;45.712;4.800;2023-10-19T11:52:40;18.70;99.90
21646;DHT22;10984;45.712;4.800;2023-10-19T11:55:06;18.80;99.90
21646;DHT22;10984;45.712;4.800;2023-10-19T11:57:31;18.90;99.90
21646;DHT22;10984;45.712;4.800;2023-10-19T11:59:58;18.90;99.90
21646;DHT22;10984;45.712;4.800;2023-10-19T12:02:25;19.00;99.90
21646;DHT22;10984;45.712;4.800;2023-10-19T12:04:52;18.90;99.90
21646;DHT22;10984;45.712;4.800;2023-10-19T12:07:18;18.80;99.90
21646;DHT22;10984;45.712;4.800;2023-10-19T12:09:43;18.70;99.90
21646;DHT22;10984;45.712;4.800;2023-10-19T12:12:10;18.70;99.90
21646;DHT22;10984;45.712;4.800;2023-10-19T12:14:36;18.60;99.90
21646;DHT22;10984;45.712;4.800;2023-10-19T12:17:02;18.60;99.90
21646;DHT22;10984;45.712;4.800;2023-10-19T12:19:47;18.60;99.90
21646;DHT22;10984;45.712;4.800;2023-10-19T12:22:12;18.50;99.90
21646;DHT22;10984;45.712;4.800;2023-10-19T12:24:38;18.50;99.90
21646;DHT22;10984;45.712;4.800;2023-10-19T12:27:04;18.50;99.90
21646;DHT22;10984;45.712;4.800;2023-10-19T12:29:30;18.50;99.90
21646;DHT22;10984;45.712;4.800;2023-10-19T12:31:57;18.40;99.90
21646;DHT22;10984;45.712;4.800;2023-10-19T12:34:23;18.40;99.90
21646;DHT22;10984;45.712;4.800;2023-10-19T12:36:48;18.40;99.90
21646;DHT22;10984;45.712;4.800;2023-10-19T12:39:17;18.50;99.90
21646;DHT22;10984;45.712;4.800;2023-10-19T12:42:01;18.50;99.90
21646;DHT22;10984;45.712;4.800;2023-10-19T12:44:27;18.60;99.90
21646;DHT22;10984;45.712;4.800;2023-10-19T12:47:11;18.70;99.90
21646;DHT22;10984;45.712;4.800;2023-10-19T12:49:55;18.70;99.90
21646;DHT22;10984;45.712;4.800;2023-10-19T12:52:22;18.80;99.90
21646;DHT22;10984;45.712;4.800;2023-10-19T12:54:48;18.70;99.90
21646;DHT22;10984;45.712;4.800;2023-10-19T12:57:16;18.80;99.90
21646;DHT22;10984;45.712;4.800;2023-10-19T12:59:42;18.80;99.90
21646;DHT22;10984;45.712;4.800;2023-10-19T13:02:09;18.80;99.90
21646;DHT22;10984;45.712;4.800;2023-10-19T13:04:35;18.80;99.90
21646;DHT22;10984;45.712;4.800;2023-10-19T13:07:01;18.80;99.90
21646;DHT22;10984;45.712;4.800;2023-10-19T13:09:28;18.80;99.90
21646;DHT22;10984;45.712;4.800;2023-10-19T13:12:12;18.80;99.90
21646;DHT22;10984;45.712;4.800;2023-10-19T13:14:38;18.90;99.90
21646;DHT22;10984;45.712;4.800;2023-10-19T13:17:04;18.90;99.90
21646;DHT22;10984;45.712;4.800;2023-10-19T13:19:30;18.90;99.90
21646;DHT22;10984;45.712;4.800;2023-10-19T13:21:55;18.90;99.90
21646;DHT22;10984;45.712;4.800;2023-10-19T13:24:23;18.70;99.90
21646;DHT22;10984;45.712;4.800;2023-10-19T13:26:51;18.70;99.90
21646;DHT22;10984;45.712;4.800;2023-10-19T13:29:17;18.70;99.90
21646;DHT22;10984;45.712;4.800;2023-10-19T13:31:43;18.70;99.90
21646;DHT22;10984;45.712;4.800;2023-10-19T13:34:15;18.70;99.90
21646;DHT22;10984;45.712;4.800;2023-10-19T13:36:40;18.70;99.90
21646;DHT22;10984;45.712;4.800;2023-10-19T13:39:06;18.70;99.90
21646;DHT22;10984;45.712;4.800;2023-10-19T13:41:38;18.70;99.90
21646;DHT22;10984;45.712;4.800;2023-10-19T13:44:04;18.80;99.90
21646;DHT22;10984;45.712;4.800;2023-10-19T13:46:30;18.90;99.90
21646;DHT22;10984;45.712;4.800;2023-10-19T13:48:56;18.90;99.90
21646;DHT22;10984;45.712;4.800;2023-10-19T13:51:22;19.00;99.90
21646;DHT22;10984;45.712;4.800;2023-10-19T13:53:48;19.00;99.90
21646;DHT22;10984;45.712;4.800;2023-10-19T13:56:15;19.10;99.90
21646;DHT22;10984;45.712;4.800;2023-10-19T13:58:41;19.10;99.90
21646;DHT22;10984;45.712;4.800;2023-10-19T14:01:08;19.20;99.90
21646;DHT22;10984;45.712;4.800;2023-10-19T14:03:34;19.10;99.90
21646;DHT22;10984;45.712;4.800;2023-10-19T14:06:00;19.10;99.90
21646;DHT22;10984;45.712;4.800;2023-10-19T14:08:26;19.10;99.90
21646;DHT22;10984;45.712;4.800;2023-10-19T14:10:51;19.10;99.90
21646;DHT22;10984;45.712;4.800;2023-10-19T14:13:17;19.10;99.90
21646;DHT22;10984;45.712;4.800;2023-10-19T14:15:43;19.10;99.90
21646;DHT22;10984;45.712;4.800;2023-10-19T14:18:09;19.20;99.90
21646;DHT22;10984;45.712;4.800;2023-10-19T14:20:35;19.30;99.90
21646;DHT22;10984;45.712;4.800;2023-10-19T14:23:04;19.30;99.90
21646;DHT22;10984;45.712;4.800;2023-10-19T14:25:30;19.40;99.90
21646;DHT22;10984;45.712;4.800;2023-10-19T14:27:56;19.50;99.90
21646;DHT22;10984;45.712;4.800;2023-10-19T14:30:41;19.60;99.90
21646;DHT22;10984;45.712;4.800;2023-10-19T14:33:07;19.70;99.90
21646;DHT22;10984;45.712;4.800;2023-10-19T14:35:37;19.70;99.90
21646;DHT22;10984;45.712;4.800;2023-10-19T14:38:07;19.80;99.90
21646;DHT22;10984;45.712;4.800;2023-10-19T14:40:34;19.80;99.90
21646;DHT22;10984;45.712;4.800;2023-10-19T14:43:00;19.90;99.90
21646;DHT22;10984;45.712;4.800;2023-10-19T14:45:27;19.90;99.90
21646;DHT22;10984;45.712;4.800;2023-10-19T14:48:12;20.00;99.90
21646;DHT22;10984;45.712;4.800;2023-10-19T14:50:38;20.00;99.90
21646;DHT22;10984;45.712;4.800;2023-10-19T14:53:04;20.00;99.90
21646;DHT22;10984;45.712;4.800;2023-10-19T14:55:29;19.90;99.90
21646;DHT22;10984;45.712;4.800;2023-10-19T14:57:55;19.90;99.90
21646;DHT22;10984;45.712;4.800;2023-10-19T15:00:22;19.90;99.90
21646;DHT22;10984;45.712;4.800;2023-10-19T15:03:06;19.90;99.90
21646;DHT22;10984;45.712;4.800;2023-10-19T15:05:33;19.90;99.90
21646;DHT22;10984;45.712;4.800;2023-10-19T15:08:01;19.80;99.90
21646;DHT22;10984;45.712;4.800;2023-10-19T15:10:28;19.80;99.90
21646;DHT22;10984;45.712;4.800;2023-10-19T15:12:57;19.80;99.90
21646;DHT22;10984;45.712;4.800;2023-10-19T15:18:08;19.70;99.90
21646;DHT22;10984;45.712;4.800;2023-10-19T15:20:34;19.70;99.90
21646;DHT22;10984;45.712;4.800;2023-10-19T15:23:00;19.70;99.90
21646;DHT22;10984;45.712;4.800;2023-10-19T15:25:26;19.70;99.90
21646;DHT22;10984;45.712;4.800;2023-10-19T15:27:52;19.70;99.90
21646;DHT22;10984;45.712;4.800;2023-10-19T15:30:19;19.60;99.90
21646;DHT22;10984;45.712;4.800;2023-10-19T15:33:03;19.60;99.90
21646;DHT22;10984;45.712;4.800;2023-10-19T15:35:29;19.60;99.90
21646;DHT22;10984;45.712;4.800;2023-10-19T15:37:55;19.60;99.90
21646;DHT22;10984;45.712;4.800;2023-10-19T15:40:21;19.50;99.90
21646;DHT22;10984;45.712;4.800;2023-10-19T15:42:46;19.50;85.40
21646;DHT22;10984;45.712;4.800;2023-10-19T15:45:14;19.50;1.00
21646;DHT22;10984;45.712;4.800;2023-10-19T15:47:44;19.40;6.30
21646;DHT22;10984;45.712;4.800;2023-10-19T15:50:10;19.40;23.40
21646;DHT22;10984;45.712;4.800;2023-10-19T15:52:37;19.30;1.00
21646;DHT22;10984;45.712;4.800;2023-10-19T15:57:52;19.30;9.20
21646;DHT22;10984;45.712;4.800;2023-10-19T16:00:18;19.20;1.00
21646;DHT22;10984;45.712;4.800;2023-10-19T16:02:43;19.30;1.00
21646;DHT22;10984;45.712;4.800;2023-10-19T16:05:10;19.20;1.00
21646;DHT22;10984;45.712;4.800;2023-10-19T16:07:54;19.20;1.00
21646;DHT22;10984;45.712;4.800;2023-10-19T16:10:20;19.20;1.00
21646;DHT22;10984;45.712;4.800;2023-10-19T16:12:46;19.20;1.00
21646;DHT22;10984;45.712;4.800;2023-10-19T16:15:12;19.20;1.00
21646;DHT22;10984;45.712;4.800;2023-10-19T16:17:38;19.20;1.00
21646;DHT22;10984;45.712;4.800;2023-10-19T16:20:22;19.20;1.00
21646;DHT22;10984;45.712;4.800;2023-10-19T16:22:47;19.20;1.00